Time;durP1;ratioP1;P1;durP2;ratioP2;P2;SDS_P1;SDS_P2;PMS_P1;PMS_P2;Temp;Humidity;BMP_temperature;BMP_pressure;BME280_temperature;BME280_humidity;BME280_pressure;Samples;Min_cycle;Max_cycle;Signal;HPM_P1;HPM_P2
2023/09/08 00:00:37;;;;;;;9.32;4.50;;;18.90;99.90;;;;;;5064934;28;20401;-87
2023/09/08 00:03:03;;;;;;;10.07;4.43;;;18.80;99.90;;;;;;5066078;28;20036;-87
2023/09/08 00:05:29;;;;;;;11.35;4.60;;;18.80;99.90;;;;;;5050374;28;20075;-87
2023/09/08 00:07:55;;;;;;;12.00;4.78;;;18.70;99.90;;;;;;5070468;28;20052;-87
2023/09/08 00:10:20;;;;;;;13.07;4.70;;;18.70;99.90;;;;;;5048541;28;20056;-87
2023/09/08 00:12:46;;;;;;;9.93;4.53;;;18.70;99.90;;;;;;5058778;28;20505;-87
2023/09/08 00:15:12;;;;;;;10.60;4.53;;;18.60;99.90;;;;;;5063524;28;20072;-87
2023/09/08 00:17:37;;;;;;;11.50;4.40;;;18.60;99.90;;;;;;5065984;28;20545;-87
2023/09/08 00:20:08;;;;;;;10.20;4.45;;;18.60;99.90;;;;;;5065966;28;20037;-87
2023/09/08 00:22:34;;;;;;;8.93;4.13;;;18.50;99.90;;;;;;5073366;28;20072;-87
2023/09/08 00:25:00;;;;;;;10.20;4.90;;;18.50;99.90;;;;;;5041167;28;20063;-87
2023/09/08 00:27:26;;;;;;;12.30;4.88;;;18.50;99.90;;;;;;5057223;28;20516;-87
2023/09/08 00:29:51;;;;;;;8.90;4.30;;;18.50;99.90;;;;;;5069983;28;20051;-87
2023/09/08 00:32:17;;;;;;;9.10;4.15;;;18.40;99.90;;;;;;5051182;28;20056;-88
2023/09/08 00:34:43;;;;;;;9.20;4.00;;;18.40;99.90;;;;;;5050729;28;20075;-87
2023/09/08 00:37:09;;;;;;;8.70;4.03;;;18.40;99.90;;;;;;5051053;28;20984;-86
2023/09/08 00:39:38;;;;;;;9.18;4.43;;;18.40;99.90;;;;;;5059051;28;20047;-88
2023/09/08 00:42:05;;;;;;;10.50;4.32;;;18.40;99.90;;;;;;5054582;28;20044;-87
2023/09/08 00:44:30;;;;;;;8.95;3.95;;;18.40;99.90;;;;;;5068133;28;20043;-87
2023/09/08 00:46:56;;;;;;;8.68;4.28;;;18.30;99.90;;;;;;5085357;28;20039;-87
2023/09/08 00:49:22;;;;;;;9.57;4.47;;;18.30;99.90;;;;;;5072585;28;20404;-87
2023/09/08 00:51:48;;;;;;;8.65;4.28;;;18.30;99.90;;;;;;5087071;28;20028;-87
2023/09/08 00:54:15;;;;;;;9.50;4.35;;;18.30;99.90;;;;;;5064063;28;20051;-87
2023/09/08 00:56:42;;;;;;;8.68;4.13;;;18.20;99.90;;;;;;5062202;28;20044;-87
2023/09/08 00:59:08;;;;;;;10.57;4.60;;;18.20;99.90;;;;;;5091141;28;20289;-87
2023/09/08 01:01:34;;;;;;;8.90;4.15;;;18.20;99.90;;;;;;5050883;28;20662;-87
2023/09/08 01:04:02;;;;;;;9.80;4.28;;;18.20;99.90;;;;;;5051614;28;20039;-87
2023/09/08 01:06:28;;;;;;;12.55;4.53;;;17.20;99.90;;;;;;5069175;28;20044;-87
2023/09/08 01:08:55;;;;;;;9.43;4.60;;;18.20;99.90;;;;;;5078433;28;20052;-86
2023/09/08 01:11:22;;;;;;;9.75;4.57;;;18.10;99.90;;;;;;5089913;28;20519;-87
2023/09/08 01:13:47;;;;;;;9.60;4.38;;;18.20;99.90;;;;;;5062854;28;20055;-86
2023/09/08 01:16:13;;;;;;;9.02;4.53;;;18.10;99.90;;;;;;5069565;28;20400;-87
2023/09/08 01:18:39;;;;;;;9.32;4.53;;;18.10;99.90;;;;;;5059665;28;20548;-87
2023/09/08 01:21:52;;;;;;;9.50;4.45;;;18.10;99.90;;;;;;5051707;28;20508;-87
2023/09/08 01:24:47;;;;;;;10.23;4.03;;;18.10;99.90;;;;;;5056664;28;20044;-87
2023/09/08 01:27:15;;;;;;;9.93;4.30;;;18.00;99.90;;;;;;5072056;28;20074;-87
2023/09/08 01:29:43;;;;;;;11.00;4.50;;;18.00;99.90;;;;;;5069093;28;20463;-87
2023/09/08 01:32:09;;;;;;;9.40;4.45;;;18.00;99.90;;;;;;5060672;28;20181;-87
2023/09/08 01:34:39;;;;;;;9.68;4.50;;;17.90;99.90;;;;;;5065342;28;20040;-87
2023/09/08 01:37:06;;;;;;;9.82;4.10;;;17.90;99.90;;;;;;5065513;28;20044;-87
2023/09/08 01:39:32;;;;;;;9.95;4.63;;;17.90;99.90;;;;;;5048871;28;20513;-87
2023/09/08 01:41:57;;;;;;;9.20;4.20;;;17.80;99.90;;;;;;5049232;28;20105;-87
2023/09/08 01:44:23;;;;;;;11.23;4.10;;;17.80;99.90;;;;;;5084960;28;20041;-86
2023/09/08 01:46:51;;;;;;;8.27;4.00;;;17.80;99.90;;;;;;5068841;28;20097;-87
2023/09/08 01:49:16;;;;;;;9.70;4.63;;;17.80;99.90;;;;;;5081360;28;20075;-87
2023/09/08 01:51:42;;;;;;;9.65;4.43;;;17.80;99.90;;;;;;5065488;28;20079;-87
2023/09/08 01:54:08;;;;;;;9.40;4.38;;;17.80;99.90;;;;;;5057694;28;20041;-87
2023/09/08 01:56:34;;;;;;;9.55;4.40;;;17.70;99.90;;;;;;5032143;28;20045;-87
2023/09/08 01:58:59;;;;;;;9.05;4.63;;;17.70;99.90;;;;;;5068069;28;20516;-87
2023/09/08 02:01:25;;;;;;;9.23;4.30;;;17.70;99.90;;;;;;5063684;28;20083;-87
2023/09/08 02:03:51;;;;;;;9.23;4.22;;;17.70;99.90;;;;;;5080850;28;20063;-87
2023/09/08 02:06:16;;;;;;;9.55;4.97;;;17.60;99.90;;;;;;5045909;28;20094;-87
2023/09/08 02:08:42;;;;;;;8.73;4.43;;;17.60;99.90;;;;;;5074263;28;20036;-87
2023/09/08 02:11:08;;;;;;;9.45;4.63;;;17.60;99.90;;;;;;5056172;28;20127;-86
2023/09/08 02:13:34;;;;;;;10.13;4.97;;;17.60;99.90;;;;;;5065035;28;20040;-86
2023/09/08 02:15:59;;;;;;;9.65;4.72;;;17.60;99.90;;;;;;5059752;28;20028;-87
2023/09/08 02:18:26;;;;;;;11.80;5.18;;;17.50;99.90;;;;;;5066000;28;20229;-87
2023/09/08 02:20:51;;;;;;;9.45;4.47;;;17.50;99.90;;;;;;5070913;28;20078;-87
2023/09/08 02:23:17;;;;;;;10.55;5.30;;;17.50;99.90;;;;;;5069921;28;20043;-87
2023/09/08 02:25:43;;;;;;;9.48;4.72;;;17.40;99.90;;;;;;5089018;28;20056;-87
2023/09/08 02:28:09;;;;;;;9.02;4.55;;;17.40;99.90;;;;;;5067205;28;20052;-87
2023/09/08 02:30:35;;;;;;;9.68;4.70;;;17.40;99.90;;;;;;5066173;28;20040;-87
2023/09/08 02:33:02;;;;;;;10.20;4.93;;;17.40;99.90;;;;;;5062741;28;20047;-88
2023/09/08 02:35:28;;;;;;;10.13;4.78;;;17.40;99.90;;;;;;5066536;28;20048;-87
2023/09/08 02:37:54;;;;;;;10.32;4.78;;;17.30;99.90;;;;;;5067549;28;20039;-86
2023/09/08 02:40:20;;;;;;;11.75;5.40;;;17.30;99.90;;;;;;5067638;28;20044;-87
2023/09/08 02:42:46;;;;;;;10.52;5.40;;;17.30;99.90;;;;;;5058806;28;20052;-86
2023/09/08 02:45:12;;;;;;;9.57;4.97;;;17.20;99.90;;;;;;5082843;28;20401;-87
2023/09/08 02:47:37;;;;;;;9.77;4.88;;;17.20;99.90;;;;;;5067768;28;20044;-87
2023/09/08 02:50:04;;;;;;;9.50;4.95;;;17.20;99.90;;;;;;5064311;28;20527;-87
2023/09/08 02:52:30;;;;;;;10.70;5.05;;;17.20;99.90;;;;;;5066976;28;20037;-87
2023/09/08 02:54:56;;;;;;;10.13;4.88;;;17.10;99.90;;;;;;5085701;28;20173;-87
2023/09/08 02:57:22;;;;;;;11.05;5.43;;;17.10;99.90;;;;;;5068332;28;20061;-87
2023/09/08 02:59:51;;;;;;;10.82;5.50;;;17.10;99.90;;;;;;5063855;28;20052;-87
2023/09/08 03:02:17;;;;;;;11.05;5.15;;;17.00;99.90;;;;;;5065404;28;20035;-87
2023/09/08 03:04:42;;;;;;;9.60;4.90;;;17.00;99.90;;;;;;5068765;28;20617;-87
2023/09/08 03:07:08;;;;;;;9.93;5.20;;;17.00;99.90;;;;;;5049731;28;20047;-87
2023/09/08 03:09:34;;;;;;;9.60;5.22;;;17.00;99.90;;;;;;5064550;28;20063;-87
2023/09/08 03:12:00;;;;;;;10.50;5.60;;;17.00;99.90;;;;;;5065262;28;20081;-87
2023/09/08 03:14:25;;;;;;;10.90;5.45;;;17.00;99.90;;;;;;5050743;28;20481;-87
2023/09/08 03:16:51;;;;;;;9.98;5.07;;;16.90;99.90;;;;;;5051413;28;20056;-87
2023/09/08 03:19:17;;;;;;;10.98;5.10;;;16.90;99.90;;;;;;5045488;28;20125;-86
2023/09/08 03:21:42;;;;;;;11.35;5.30;;;16.90;99.90;;;;;;5060043;28;20055;-87
2023/09/08 03:24:08;;;;;;;10.77;5.88;;;16.90;99.90;;;;;;5044876;28;20041;-87
2023/09/08 03:26:34;;;;;;;11.40;5.28;;;16.90;99.90;;;;;;5043670;28;20113;-86
2023/09/08 03:29:00;;;;;;;10.70;5.35;;;16.80;99.90;;;;;;5059437;28;20123;-86
2023/09/08 03:31:26;;;;;;;9.88;5.22;;;16.90;99.90;;;;;;5065365;28;20331;-87
2023/09/08 03:33:51;;;;;;;10.93;5.78;;;16.80;99.90;;;;;;5063944;28;20051;-87
2023/09/08 03:36:17;;;;;;;10.60;5.25;;;16.80;99.90;;;;;;5058216;28;20146;-87
2023/09/08 03:38:43;;;;;;;11.77;5.50;;;16.70;99.90;;;;;;5051852;28;20059;-87
2023/09/08 03:41:08;;;;;;;10.65;5.43;;;16.70;99.90;;;;;;5070482;28;20062;-86
2023/09/08 03:43:34;;;;;;;10.90;5.82;;;16.70;99.90;;;;;;5046281;28;20090;-86
2023/09/08 03:46:00;;;;;;;11.02;5.57;;;16.60;99.90;;;;;;5066167;28;20036;-87
2023/09/08 03:48:25;;;;;;;10.40;5.70;;;16.60;99.90;;;;;;5053694;28;20051;-87
2023/09/08 03:50:51;;;;;;;11.32;5.65;;;16.60;99.90;;;;;;5042084;28;20054;-86
2023/09/08 03:53:17;;;;;;;11.80;6.10;;;16.60;99.90;;;;;;5039342;28;20440;-86
2023/09/08 03:55:43;;;;;;;11.55;5.90;;;16.50;99.90;;;;;;5081581;28;20683;-87
2023/09/08 03:58:08;;;;;;;12.18;6.03;;;16.50;99.90;;;;;;5053387;28;20056;-87
2023/09/08 04:00:35;;;;;;;10.52;5.90;;;16.60;99.90;;;;;;5082042;28;20041;-87
2023/09/08 04:03:00;;;;;;;10.68;5.10;;;16.50;99.90;;;;;;5068423;28;20493;-87
2023/09/08 04:05:26;;;;;;;10.80;5.80;;;16.50;99.90;;;;;;5063040;28;20036;-86
2023/09/08 04:07:52;;;;;;;10.75;5.57;;;16.40;99.90;;;;;;5055336;28;20090;-86
2023/09/08 04:10:17;;;;;;;11.35;5.70;;;16.40;99.90;;;;;;5049499;28;20055;-87
2023/09/08 04:12:44;;;;;;;10.85;5.70;;;16.40;99.90;;;;;;5068140;28;20040;-87
2023/09/08 04:15:10;;;;;;;10.48;5.43;;;16.40;99.90;;;;;;5066656;28;20052;-86
2023/09/08 04:17:36;;;;;;;10.93;5.60;;;16.40;99.90;;;;;;5064677;28;20047;-87
2023/09/08 04:20:06;;;;;;;12.27;5.93;;;16.40;99.90;;;;;;5067796;28;20044;-86
2023/09/08 04:22:32;;;;;;;11.70;6.10;;;16.40;99.90;;;;;;5063956;28;20041;-87
2023/09/08 04:24:58;;;;;;;11.38;5.82;;;16.40;99.90;;;;;;5067528;28;20032;-87
2023/09/08 04:27:24;;;;;;;10.85;5.72;;;16.30;99.90;;;;;;5064253;28;20051;-87
2023/09/08 04:29:50;;;;;;;10.40;5.70;;;16.30;99.90;;;;;;5066196;28;20048;-86
2023/09/08 04:32:16;;;;;;;12.02;6.25;;;16.30;99.90;;;;;;5058972;28;20046;-86
2023/09/08 04:34:42;;;;;;;11.60;6.38;;;16.20;99.90;;;;;;5066007;28;20043;-86
2023/09/08 04:37:08;;;;;;;11.65;5.88;;;16.20;99.90;;;;;;5056823;28;20036;-86
2023/09/08 04:39:35;;;;;;;12.63;6.35;;;16.20;99.90;;;;;;5068791;28;20044;-87
2023/09/08 04:42:01;;;;;;;11.98;6.18;;;16.10;99.90;;;;;;5070039;28;20637;-86
2023/09/08 04:44:27;;;;;;;11.05;6.05;;;16.10;99.90;;;;;;5074677;28;20037;-87
2023/09/08 04:46:53;;;;;;;10.32;5.65;;;16.10;99.90;;;;;;5075253;28;20043;-87
2023/09/08 04:49:19;;;;;;;11.15;6.15;;;16.10;99.90;;;;;;5053799;28;20048;-86
2023/09/08 04:51:45;;;;;;;12.00;6.25;;;16.10;99.90;;;;;;5024319;28;20045;-87
2023/09/08 04:54:10;;;;;;;11.10;6.32;;;16.10;99.90;;;;;;5048681;28;20507;-87
2023/09/08 04:56:38;;;;;;;12.55;6.05;;;16.00;99.90;;;;;;5063905;28;20131;-88
2023/09/08 04:59:03;;;;;;;11.45;5.72;;;16.10;99.90;;;;;;5067627;28;20055;-88
2023/09/08 05:01:32;;;;;;;10.93;6.25;;;16.00;99.90;;;;;;5038530;28;20443;-87
2023/09/08 05:03:59;;;;;;;10.60;5.68;;;16.10;99.90;;;;;;5080556;28;20044;-87
2023/09/08 05:06:25;;;;;;;11.77;6.60;;;16.00;99.90;;;;;;5050796;28;20040;-87
2023/09/08 05:08:51;;;;;;;14.15;5.95;;;16.00;99.90;;;;;;5067186;28;20048;-88
2023/09/08 05:11:18;;;;;;;10.52;5.88;;;16.00;99.90;;;;;;5054943;28;20048;-87
2023/09/08 05:13:44;;;;;;;11.25;6.00;;;16.00;99.90;;;;;;5047146;28;20048;-87
2023/09/08 05:16:13;;;;;;;12.43;6.18;;;16.00;99.90;;;;;;5076244;28;20089;-87
2023/09/08 05:18:39;;;;;;;11.32;6.32;;;16.00;99.90;;;;;;5029818;28;20044;-87
2023/09/08 05:21:06;;;;;;;10.80;6.00;;;16.00;99.90;;;;;;5061923;28;20136;-87
2023/09/08 05:23:32;;;;;;;11.68;5.68;;;16.00;99.90;;;;;;5061790;28;20083;-87
2023/09/08 05:25:58;;;;;;;11.10;5.85;;;16.00;99.90;;;;;;5066442;28;20088;-87
2023/09/08 05:28:23;;;;;;;12.55;5.95;;;16.00;99.90;;;;;;5032175;28;21158;-86
2023/09/08 05:30:53;;;;;;;11.25;6.18;;;16.00;99.90;;;;;;5052373;28;20044;-87
2023/09/08 05:33:19;;;;;;;11.38;6.40;;;16.00;99.90;;;;;;5052798;28;20127;-87
2023/09/08 05:35:45;;;;;;;11.68;6.38;;;16.00;99.90;;;;;;5069448;28;20747;-86
2023/09/08 05:38:11;;;;;;;11.02;6.38;;;16.00;99.90;;;;;;5068776;28;20052;-87
2023/09/08 05:40:37;;;;;;;10.85;5.90;;;16.00;99.90;;;;;;5065618;28;20043;-86
2023/09/08 05:43:04;;;;;;;13.63;6.72;;;16.00;99.90;;;;;;5065860;28;20506;-87
2023/09/08 05:45:32;;;;;;;11.35;6.22;;;16.00;99.90;;;;;;5067708;28;20047;-86
2023/09/08 05:47:57;;;;;;;14.27;6.40;;;16.10;99.90;;;;;;5068737;28;20048;-87
2023/09/08 05:50:23;;;;;;;13.73;6.20;;;16.10;99.90;;;;;;5064288;28;20047;-87
2023/09/08 05:52:51;;;;;;;11.07;6.05;;;16.10;99.90;;;;;;5066099;28;20098;-87
2023/09/08 05:55:17;;;;;;;11.98;6.45;;;16.20;99.90;;;;;;5068920;28;20102;-87
2023/09/08 05:57:43;;;;;;;11.55;6.60;;;16.20;99.90;;;;;;5068428;28;20044;-87
2023/09/08 06:00:09;;;;;;;11.77;6.30;;;16.30;99.90;;;;;;5066915;28;20040;-86
2023/09/08 06:02:34;;;;;;;13.30;6.60;;;16.40;99.90;;;;;;5066662;28;20099;-87
2023/09/08 06:05:00;;;;;;;10.77;5.63;;;16.50;99.90;;;;;;5067939;28;20052;-87
2023/09/08 06:07:26;;;;;;;15.35;6.18;;;16.60;99.90;;;;;;5062617;28;20057;-87
2023/09/08 06:09:51;;;;;;;12.60;6.53;;;16.70;99.90;;;;;;5059560;28;20045;-87
2023/09/08 06:12:17;;;;;;;12.15;7.03;;;16.70;99.90;;;;;;5054730;28;20056;-86
2023/09/08 06:14:43;;;;;;;12.27;7.00;;;16.80;99.90;;;;;;5045165;28;20465;-85
2023/09/08 06:17:09;;;;;;;12.65;6.80;;;16.90;99.90;;;;;;5049434;28;20045;-86
2023/09/08 06:19:35;;;;;;;11.25;6.03;;;17.00;99.90;;;;;;5056734;28;20153;-86
2023/09/08 06:22:01;;;;;;;11.38;6.20;;;17.10;99.90;;;;;;5057217;28;20448;-86
2023/09/08 06:24:27;;;;;;;12.32;6.68;;;17.20;99.90;;;;;;5048236;28;20060;-85
2023/09/08 06:26:52;;;;;;;13.45;6.80;;;17.30;99.90;;;;;;5047268;28;20056;-86
2023/09/08 06:29:18;;;;;;;11.93;6.22;;;17.40;99.90;;;;;;5021533;28;20055;-85
2023/09/08 06:31:44;;;;;;;12.05;6.20;;;17.50;99.90;;;;;;5040988;28;20136;-86
2023/09/08 06:34:09;;;;;;;11.85;6.53;;;17.60;99.90;;;;;;5034132;28;20144;-87
2023/09/08 06:36:36;;;;;;;11.13;6.03;;;17.70;99.90;;;;;;5033028;28;20045;-85
2023/09/08 06:39:02;;;;;;;12.80;7.07;;;17.80;99.90;;;;;;5049036;28;20045;-86
2023/09/08 06:41:28;;;;;;;14.30;6.50;;;17.90;99.90;;;;;;5053974;28;20165;-86
2023/09/08 06:43:54;;;;;;;12.23;6.25;;;18.00;99.90;;;;;;5037813;28;20037;-87
2023/09/08 06:46:20;;;;;;;11.90;6.07;;;18.10;99.90;;;;;;5053912;28;20394;-86
2023/09/08 06:48:45;;;;;;;11.85;6.78;;;18.30;99.90;;;;;;5040468;28;20054;-86
2023/09/08 06:51:11;;;;;;;10.85;6.18;;;18.40;99.90;;;;;;5057300;28;20041;-85
2023/09/08 06:53:37;;;;;;;10.98;6.45;;;18.50;99.90;;;;;;5036995;28;20132;-87
2023/09/08 06:56:03;;;;;;;11.13;6.43;;;18.60;99.90;;;;;;5039446;28;20048;-86
2023/09/08 06:58:29;;;;;;;10.63;5.80;;;18.70;99.90;;;;;;5053661;28;20149;-88
2023/09/08 07:00:54;;;;;;;10.82;5.93;;;18.80;99.90;;;;;;5056025;28;20036;-86
2023/09/08 07:03:24;;;;;;;13.85;6.68;;;19.00;99.90;;;;;;5062447;28;20073;-86
2023/09/08 07:05:50;;;;;;;12.98;6.30;;;19.10;99.90;;;;;;5043107;28;20040;-86
2023/09/08 07:08:17;;;;;;;11.60;6.22;;;19.20;99.90;;;;;;5055816;28;20056;-87
2023/09/08 07:10:43;;;;;;;11.40;6.03;;;19.30;99.90;;;;;;5048219;28;20049;-86
2023/09/08 07:13:10;;;;;;;12.90;6.15;;;19.50;99.90;;;;;;5021774;28;20044;-87
2023/09/08 07:15:35;;;;;;;12.75;6.45;;;19.70;99.90;;;;;;5060705;28;20040;-86
2023/09/08 07:18:01;;;;;;;11.38;6.00;;;19.70;99.90;;;;;;5051973;28;20029;-86
2023/09/08 07:20:26;;;;;;;11.23;5.88;;;19.80;99.90;;;;;;5043449;28;20045;-85
2023/09/08 07:22:52;;;;;;;11.00;5.47;;;20.00;99.90;;;;;;5057965;28;20051;-86
2023/09/08 07:25:19;;;;;;;12.80;5.40;;;20.10;99.90;;;;;;5040427;28;20041;-86
2023/09/08 07:27:45;;;;;;;11.25;5.28;;;20.30;99.90;;;;;;5060625;28;20046;-86
2023/09/08 07:30:11;;;;;;;11.20;5.65;;;20.40;99.90;;;;;;5063622;28;20048;-85
2023/09/08 07:32:37;;;;;;;9.80;5.13;;;20.50;99.90;;;;;;5063138;28;20513;-85
2023/09/08 07:35:03;;;;;;;10.70;5.68;;;20.60;99.90;;;;;;5044284;28;20070;-87
2023/09/08 07:37:29;;;;;;;9.77;5.20;;;20.80;99.90;;;;;;5054778;28;20082;-87
2023/09/08 07:39:55;;;;;;;9.95;5.22;;;20.90;99.90;;;;;;5062048;28;20559;-87
2023/09/08 07:42:21;;;;;;;10.27;5.13;;;21.00;99.90;;;;;;5071418;28;20170;-86
2023/09/08 07:44:47;;;;;;;10.52;5.00;;;21.10;99.90;;;;;;5061591;28;20310;-87
2023/09/08 07:47:13;;;;;;;10.10;5.13;;;21.40;99.90;;;;;;5046691;28;20123;-87
2023/09/08 07:49:45;;;;;;;9.80;5.00;;;21.20;99.90;;;;;;5042045;28;20519;-87
2023/09/08 07:52:11;;;;;;;9.93;4.75;;;21.30;99.90;;;;;;5071715;28;20040;-86
2023/09/08 07:54:36;;;;;;;10.13;4.82;;;21.50;99.90;;;;;;5071164;28;20036;-86
2023/09/08 07:57:02;;;;;;;10.27;4.57;;;21.50;99.90;;;;;;5070411;28;20463;-86
2023/09/08 07:59:28;;;;;;;10.05;4.93;;;21.70;99.90;;;;;;5039951;28;20593;-86
2023/09/08 08:01:54;;;;;;;10.20;5.22;;;21.80;99.90;;;;;;5073445;28;20020;-86
2023/09/08 08:04:19;;;;;;;11.60;4.95;;;21.80;99.90;;;;;;5059380;28;20524;-86
2023/09/08 08:06:45;;;;;;;10.88;4.60;;;21.80;99.90;;;;;;5051804;28;20126;-87
2023/09/08 08:09:11;;;;;;;10.23;4.50;;;22.00;99.90;;;;;;5071420;28;20413;-86
2023/09/08 08:11:36;;;;;;;9.35;4.85;;;22.10;99.90;;;;;;5037580;28;20302;-86
2023/09/08 08:14:02;;;;;;;9.57;4.50;;;22.20;99.90;;;;;;5055621;28;20048;-86
2023/09/08 08:16:28;;;;;;;8.68;4.00;;;22.30;99.90;;;;;;5065962;28;20119;-86
2023/09/08 08:18:54;;;;;;;9.52;4.63;;;22.40;99.90;;;;;;5058420;28;20067;-86
2023/09/08 08:21:20;;;;;;;9.75;4.55;;;22.40;99.90;;;;;;5071569;28;20040;-87
2023/09/08 08:23:46;;;;;;;10.00;4.63;;;22.50;99.90;;;;;;5037300;28;20700;-86
2023/09/08 08:26:11;;;;;;;9.05;4.55;;;22.60;99.90;;;;;;5029132;28;20289;-86
2023/09/08 08:28:37;;;;;;;8.93;4.32;;;22.70;99.90;;;;;;5062543;28;20047;-87
2023/09/08 08:31:03;;;;;;;9.45;4.47;;;22.90;99.90;;;;;;5075959;28;20041;-87
2023/09/08 08:33:31;;;;;;;10.27;4.50;;;23.00;99.90;;;;;;5063656;28;20041;-86
2023/09/08 08:35:57;;;;;;;9.88;4.68;;;23.50;99.90;;;;;;5064008;28;20047;-85
2023/09/08 08:38:23;;;;;;;11.00;4.55;;;23.20;99.90;;;;;;5060727;28;20044;-86
2023/09/08 08:40:49;;;;;;;9.18;4.25;;;23.30;99.90;;;;;;5047405;28;20040;-86
2023/09/08 08:43:14;;;;;;;10.32;4.35;;;23.40;99.90;;;;;;5048616;28;20044;-86
2023/09/08 08:45:43;;;;;;;9.43;4.03;;;23.50;99.90;;;;;;5060380;28;20055;-86
2023/09/08 08:48:09;;;;;;;12.55;4.65;;;23.70;99.90;;;;;;5060052;28;20044;-85
2023/09/08 08:50:38;;;;;;;9.85;4.20;;;23.70;99.90;;;;;;5073452;28;20405;-86
2023/09/08 08:53:04;;;;;;;8.65;4.00;;;23.80;99.90;;;;;;5061505;28;20044;-86
2023/09/08 08:55:31;;;;;;;9.27;4.10;;;23.90;99.90;;;;;;5059843;28;20032;-86
2023/09/08 08:58:03;;;;;;;10.75;4.07;;;24.00;99.90;;;;;;5054219;28;20047;-87
2023/09/08 09:00:29;;;;;;;8.73;3.70;;;24.10;99.90;;;;;;5063879;28;20638;-86
2023/09/08 09:02:57;;;;;;;8.65;3.97;;;24.10;99.90;;;;;;5064608;28;20044;-87
2023/09/08 09:05:24;;;;;;;8.80;3.90;;;24.30;99.90;;;;;;5052896;28;20178;-87
2023/09/08 09:07:51;;;;;;;8.88;3.88;;;24.30;99.90;;;;;;5059724;28;20139;-86
2023/09/08 09:10:17;;;;;;;9.82;3.85;;;;;;;;;;5063093;28;20048;-86
2023/09/08 09:12:43;;;;;;;8.55;3.83;;;24.50;99.90;;;;;;5061232;28;20108;-86
2023/09/08 09:15:09;;;;;;;8.02;3.70;;;24.60;99.90;;;;;;5062410;28;20051;-86
2023/09/08 09:17:36;;;;;;;9.13;4.00;;;24.60;99.90;;;;;;5049056;28;20131;-86
2023/09/08 09:20:20;;;;;;;9.63;3.95;;;24.70;99.90;;;;;;5061397;28;20037;-86
2023/09/08 09:22:47;;;;;;;8.75;4.07;;;24.30;99.90;;;;;;5060845;28;20043;-89
2023/09/08 09:25:27;;;;;;;8.88;3.55;;;24.90;99.90;;;;;;5042749;28;20130;-88
2023/09/08 09:27:57;;;;;;;8.75;3.70;;;24.90;99.90;;;;;;5061666;28;20050;-87
2023/09/08 09:30:24;;;;;;;8.75;3.55;;;25.00;99.90;;;;;;5068160;28;20040;-87
2023/09/08 09:33:04;;;;;;;8.98;4.03;;;25.10;99.90;;;;;;5059723;28;20109;-87
2023/09/08 09:35:46;;;;;;;12.00;3.78;;;24.90;99.90;;;;;;5054819;28;20037;-87
2023/09/08 09:38:14;;;;;;;8.50;3.80;;;25.20;99.90;;;;;;5037834;28;20106;-86
2023/09/08 09:40:40;;;;;;;8.52;4.00;;;25.30;99.90;;;;;;5051610;28;20047;-87
2023/09/08 09:43:07;;;;;;;8.63;3.88;;;25.50;99.90;;;;;;5050208;28;20029;-86
2023/09/08 09:45:37;;;;;;;8.65;3.70;;;25.40;99.90;;;;;;5052492;28;20393;-86
2023/09/08 09:48:04;;;;;;;8.27;3.50;;;25.50;99.90;;;;;;5043184;28;20136;-87
2023/09/08 09:50:32;;;;;;;9.18;3.90;;;25.60;99.90;;;;;;5062531;28;20052;-87
2023/09/08 09:53:00;;;;;;;8.88;3.72;;;25.70;99.90;;;;;;5061589;28;20055;-86
2023/09/08 09:55:27;;;;;;;8.60;3.50;;;25.80;99.90;;;;;;5038115;28;20517;-87
2023/09/08 09:57:56;;;;;;;8.10;3.72;;;25.90;99.90;;;;;;5068406;28;20071;-88
2023/09/08 10:00:22;;;;;;;8.98;3.88;;;25.80;99.90;;;;;;5065994;28;20067;-87
2023/09/08 10:02:49;;;;;;;8.98;4.05;;;26.00;99.90;;;;;;5037852;28;20094;-86
2023/09/08 10:05:15;;;;;;;8.05;3.50;;;;;;;;;;5055837;28;20528;-87
2023/09/08 10:07:42;;;;;;;8.30;3.38;;;26.20;99.90;;;;;;5059141;28;20036;-87
2023/09/08 10:10:09;;;;;;;10.70;3.78;;;26.20;99.90;;;;;;5058767;28;20044;-86
2023/09/08 10:12:36;;;;;;;7.70;3.55;;;26.20;99.90;;;;;;5061836;28;20044;-86
2023/09/08 10:15:05;;;;;;;8.05;3.65;;;26.30;99.90;;;;;;5060801;28;20044;-87
2023/09/08 10:17:33;;;;;;;8.25;3.65;;;26.40;99.90;;;;;;5073861;28;20036;-87
2023/09/08 10:20:01;;;;;;;8.25;3.53;;;26.50;99.90;;;;;;5062508;28;20040;-87
2023/09/08 10:22:31;;;;;;;7.97;3.55;;;26.50;99.90;;;;;;5064336;28;20070;-86
2023/09/08 10:25:00;;;;;;;8.30;3.58;;;26.40;99.90;;;;;;5069411;28;20047;-87
2023/09/08 10:27:26;;;;;;;8.85;3.65;;;26.80;99.90;;;;;;5062420;28;20064;-87
2023/09/08 10:29:52;;;;;;;9.18;3.70;;;26.50;99.90;;;;;;5060560;28;20479;-87
2023/09/08 10:32:19;;;;;;;8.20;3.67;;;26.70;99.90;;;;;;5064479;28;20578;-87
2023/09/08 10:34:46;;;;;;;8.35;3.40;;;26.70;99.90;;;;;;5056894;28;20056;-87
2023/09/08 10:37:24;;;;;;;8.18;3.38;;;26.80;99.90;;;;;;5035240;28;20413;-87
2023/09/08 10:39:49;;;;;;;8.63;3.60;;;24.60;99.90;;;;;;5048894;28;20135;-87
2023/09/08 10:42:19;;;;;;;8.20;3.47;;;26.90;99.90;;;;;;5055260;28;20127;-86
2023/09/08 10:44:47;;;;;;;8.45;3.60;;;26.90;99.90;;;;;;5057461;28;20459;-87
2023/09/08 10:47:14;;;;;;;8.77;3.30;;;27.00;99.90;;;;;;5059928;28;20040;-86
2023/09/08 10:49:40;;;;;;;7.82;3.40;;;27.00;99.90;;;;;;5067846;28;20032;-86
2023/09/08 10:52:11;;;;;;;8.55;3.40;;;27.10;99.90;;;;;;5062421;28;20040;-88
2023/09/08 10:54:45;;;;;;;8.00;3.22;;;27.90;99.90;;;;;;5061909;28;20053;-86
2023/09/08 10:57:15;;;;;;;8.05;3.50;;;27.20;99.90;;;;;;5054818;28;20060;-86
2023/09/08 10:59:57;;;;;;;9.00;3.58;;;27.70;99.90;;;;;;5054236;28;21786;-87
2023/09/08 11:02:41;;;;;;;8.38;3.60;;;27.20;99.90;;;;;;5058447;28;20040;-87
2023/09/08 11:05:09;;;;;;;7.82;3.55;;;27.30;99.90;;;;;;5066699;28;20064;-87
2023/09/08 11:07:38;;;;;;;8.05;3.08;;;27.30;99.90;;;;;;5064655;28;20037;-87
2023/09/08 11:10:05;;;;;;;8.25;3.60;;;27.40;99.90;;;;;;5069443;28;20029;-87
2023/09/08 11:12:31;;;;;;;8.73;3.40;;;27.40;99.90;;;;;;5064495;28;20074;-86
2023/09/08 11:15:00;;;;;;;9.43;3.58;;;27.50;99.90;;;;;;5062668;28;20052;-87
2023/09/08 11:17:34;;;;;;;8.45;3.45;;;27.60;99.90;;;;;;5065615;28;20477;-86
2023/09/08 11:20:00;;;;;;;7.88;3.40;;;27.60;99.90;;;;;;5062028;28;20109;-86
2023/09/08 11:22:26;;;;;;;8.55;3.17;;;27.90;99.90;;;;;;5063136;28;20512;-87
2023/09/08 11:24:56;;;;;;;7.80;3.30;;;27.60;99.90;;;;;;5063622;28;20397;-85
2023/09/08 11:27:23;;;;;;;9.27;3.40;;;27.70;99.90;;;;;;5043934;28;20088;-86
2023/09/08 11:29:50;;;;;;;7.95;3.20;;;27.70;99.90;;;;;;5060042;28;20052;-86
2023/09/08 11:32:16;;;;;;;7.57;3.08;;;27.70;99.90;;;;;;5056776;28;20059;-84
2023/09/08 11:34:41;;;;;;;8.20;3.53;;;27.80;99.90;;;;;;5050825;28;20028;-86
2023/09/08 11:37:16;;;;;;;8.40;3.35;;;27.80;99.90;;;;;;5050566;28;20474;-87
2023/09/08 11:39:43;;;;;;;8.13;3.17;;;27.90;99.90;;;;;;5062823;28;20040;-86
2023/09/08 11:42:11;;;;;;;7.95;3.28;;;28.00;99.90;;;;;;5062258;28;20048;-86
2023/09/08 11:44:37;;;;;;;9.52;3.50;;;27.90;99.90;;;;;;5060767;28;20036;-86
2023/09/08 11:47:06;;;;;;;9.02;3.35;;;28.00;99.90;;;;;;5053252;28;20047;-86
2023/09/08 11:49:40;;;;;;;8.55;3.00;;;28.00;99.90;;;;;;5033948;28;20446;-86
2023/09/08 11:52:07;;;;;;;7.82;3.20;;;28.10;99.90;;;;;;5050468;28;20110;-86
2023/09/08 11:54:34;;;;;;;8.85;3.25;;;28.10;99.90;;;;;;5056969;28;20129;-85
2023/09/08 11:57:01;;;;;;;7.68;2.75;;;28.20;99.90;;;;;;5038105;28;20773;-86
2023/09/08 11:59:30;;;;;;;8.07;3.30;;;28.70;99.90;;;;;;5062625;28;20051;-85
2023/09/08 12:01:56;;;;;;;7.45;2.92;;;28.30;99.90;;;;;;5058508;28;20037;-87
2023/09/08 12:04:22;;;;;;;7.47;3.05;;;28.20;99.90;;;;;;5062958;28;20410;-87
2023/09/08 12:06:49;;;;;;;8.77;3.30;;;28.30;99.90;;;;;;5045867;28;20089;-86
2023/09/08 12:09:16;;;;;;;8.10;3.38;;;28.30;99.90;;;;;;5058253;28;20037;-87
2023/09/08 12:11:42;;;;;;;7.95;3.17;;;28.30;99.90;;;;;;5028212;28;20048;-86
2023/09/08 12:14:13;;;;;;;7.32;3.00;;;28.50;99.90;;;;;;5034956;28;20033;-86
2023/09/08 12:16:40;;;;;;;7.22;2.88;;;28.30;99.90;;;;;;5056735;28;20033;-88
2023/09/08 12:19:07;;;;;;;7.63;3.33;;;28.40;99.90;;;;;;5064882;28;20041;-87
2023/09/08 12:21:55;;;;;;;10.18;3.20;;;28.40;99.90;;;;;;5058634;28;20131;-86
2023/09/08 12:24:40;;;;;;;8.05;3.13;;;28.40;99.90;;;;;;5051077;28;20037;-87
2023/09/08 12:27:06;;;;;;;7.82;3.20;;;28.80;99.90;;;;;;5042449;28;20053;-86
2023/09/08 12:29:32;;;;;;;8.25;3.28;;;28.50;99.90;;;;;;5060028;28;20091;-85
2023/09/08 12:31:58;;;;;;;7.82;3.35;;;28.60;99.90;;;;;;5059709;28;20060;-86
2023/09/08 12:34:23;;;;;;;7.95;3.15;;;29.00;99.90;;;;;;5063244;28;20047;-87
2023/09/08 12:36:49;;;;;;;7.75;3.20;;;27.60;99.90;;;;;;5060107;28;20115;-86
2023/09/08 12:39:15;;;;;;;8.40;2.97;;;28.70;99.90;;;;;;5053618;28;20044;-86
2023/09/08 12:41:40;;;;;;;7.88;3.33;;;28.80;99.90;;;;;;5054889;28;20462;-85